sensor_id;sensor_type;location;lat;lon;timestamp;P1;durP1;ratioP1;P2;durP2;ratioP2
80823;SDS011;70538;59.122;37.876;2023-07-30T00:00:41;5.13;;;1.60;;
80823;SDS011;70538;59.122;37.876;2023-07-30T00:03:08;5.05;;;1.42;;
80823;SDS011;70538;59.122;37.876;2023-07-30T00:05:36;6.20;;;1.67;;
80823;SDS011;70538;59.122;37.876;2023-07-30T00:08:04;6.18;;;1.73;;
80823;SDS011;70538;59.122;37.876;2023-07-30T00:10:31;6.72;;;1.70;;
80823;SDS011;70538;59.122;37.876;2023-07-30T00:12:59;4.90;;;1.60;;
80823;SDS011;70538;59.122;37.876;2023-07-30T00:15:27;4.90;;;1.40;;
80823;SDS011;70538;59.122;37.876;2023-07-30T00:17:55;5.10;;;1.50;;
80823;SDS011;70538;59.122;37.876;2023-07-30T00:20:23;5.70;;;1.73;;
80823;SDS011;70538;59.122;37.876;2023-07-30T00:22:52;4.72;;;1.45;;
80823;SDS011;70538;59.122;37.876;2023-07-30T00:25:20;4.43;;;1.33;;
80823;SDS011;70538;59.122;37.876;2023-07-30T00:27:48;5.60;;;1.50;;
80823;SDS011;70538;59.122;37.876;2023-07-30T00:30:16;5.80;;;1.35;;
80823;SDS011;70538;59.122;37.876;2023-07-30T00:32:43;5.80;;;1.30;;
80823;SDS011;70538;59.122;37.876;2023-07-30T00:35:11;5.55;;;1.40;;
80823;SDS011;70538;59.122;37.876;2023-07-30T00:37:39;5.77;;;1.50;;
80823;SDS011;70538;59.122;37.876;2023-07-30T00:40:07;6.32;;;1.75;;
80823;SDS011;70538;59.122;37.876;2023-07-30T00:42:35;7.40;;;1.55;;
80823;SDS011;70538;59.122;37.876;2023-07-30T00:45:03;5.15;;;1.40;;
80823;SDS011;70538;59.122;37.876;2023-07-30T00:47:31;6.45;;;1.50;;
80823;SDS011;70538;59.122;37.876;2023-07-30T00:50:01;5.33;;;1.63;;
80823;SDS011;70538;59.122;37.876;2023-07-30T00:52:29;6.05;;;1.50;;
80823;SDS011;70538;59.122;37.876;2023-07-30T00:54:57;5.68;;;1.50;;
80823;SDS011;70538;59.122;37.876;2023-07-30T00:57:30;5.30;;;1.52;;
80823;SDS011;70538;59.122;37.876;2023-07-30T00:59:59;4.60;;;1.25;;
80823;SDS011;70538;59.122;37.876;2023-07-30T01:02:32;4.57;;;1.30;;
80823;SDS011;70538;59.122;37.876;2023-07-30T01:05:00;5.57;;;1.42;;
80823;SDS011;70538;59.122;37.876;2023-07-30T01:07:30;5.25;;;1.30;;
80823;SDS011;70538;59.122;37.876;2023-07-30T01:09:59;4.97;;;1.60;;
80823;SDS011;70538;59.122;37.876;2023-07-30T01:12:31;5.53;;;1.70;;
80823;SDS011;70538;59.122;37.876;2023-07-30T01:15:01;4.70;;;1.40;;
80823;SDS011;70538;59.122;37.876;2023-07-30T01:17:33;6.22;;;1.80;;
80823;SDS011;70538;59.122;37.876;2023-07-30T01:20:06;5.57;;;1.75;;
80823;SDS011;70538;59.122;37.876;2023-07-30T01:22:34;7.05;;;1.73;;
80823;SDS011;70538;59.122;37.876;2023-07-30T01:25:02;6.10;;;1.65;;
80823;SDS011;70538;59.122;37.876;2023-07-30T01:27:33;5.67;;;1.63;;
80823;SDS011;70538;59.122;37.876;2023-07-30T01:30:07;5.10;;;1.50;;
80823;SDS011;70538;59.122;37.876;2023-07-30T01:32:42;5.95;;;1.70;;
80823;SDS011;70538;59.122;37.876;2023-07-30T01:35:10;4.90;;;1.50;;
80823;SDS011;70538;59.122;37.876;2023-07-30T01:37:40;6.18;;;1.48;;
80823;SDS011;70538;59.122;37.876;2023-07-30T01:40:11;8.13;;;1.50;;
80823;SDS011;70538;59.122;37.876;2023-07-30T01:42:39;6.07;;;1.58;;
80823;SDS011;70538;59.122;37.876;2023-07-30T01:45:07;5.57;;;1.60;;
80823;SDS011;70538;59.122;37.876;2023-07-30T01:47:35;5.22;;;1.63;;
80823;SDS011;70538;59.122;37.876;2023-07-30T01:50:03;6.40;;;1.40;;
80823;SDS011;70538;59.122;37.876;2023-07-30T01:52:31;7.10;;;1.60;;
80823;SDS011;70538;59.122;37.876;2023-07-30T01:54:58;6.95;;;1.77;;
80823;SDS011;70538;59.122;37.876;2023-07-30T01:57:31;5.35;;;1.85;;
80823;SDS011;70538;59.122;37.876;2023-07-30T01:59:59;5.45;;;1.63;;
80823;SDS011;70538;59.122;37.876;2023-07-30T02:02:34;5.65;;;1.73;;
80823;SDS011;70538;59.122;37.876;2023-07-30T02:05:03;6.20;;;1.90;;
80823;SDS011;70538;59.122;37.876;2023-07-30T02:07:31;5.22;;;1.70;;
80823;SDS011;70538;59.122;37.876;2023-07-30T02:09:59;6.25;;;1.90;;
80823;SDS011;70538;59.122;37.876;2023-07-30T02:12:31;7.28;;;2.15;;
80823;SDS011;70538;59.122;37.876;2023-07-30T02:14:59;5.25;;;1.70;;
80823;SDS011;70538;59.122;37.876;2023-07-30T02:17:29;6.90;;;1.80;;
80823;SDS011;70538;59.122;37.876;2023-07-30T02:20:17;9.80;;;1.80;;
80823;SDS011;70538;59.122;37.876;2023-07-30T02:22:45;5.75;;;1.90;;
80823;SDS011;70538;59.122;37.876;2023-07-30T02:25:13;5.53;;;1.77;;
80823;SDS011;70538;59.122;37.876;2023-07-30T02:27:42;7.47;;;1.88;;
80823;SDS011;70538;59.122;37.876;2023-07-30T02:30:09;9.00;;;2.30;;
80823;SDS011;70538;59.122;37.876;2023-07-30T02:32:37;7.00;;;2.30;;
80823;SDS011;70538;59.122;37.876;2023-07-30T02:35:05;8.20;;;2.45;;
80823;SDS011;70538;59.122;37.876;2023-07-30T02:37:33;10.30;;;2.20;;
80823;SDS011;70538;59.122;37.876;2023-07-30T02:40:01;8.15;;;2.30;;
80823;SDS011;70538;59.122;37.876;2023-07-30T02:42:32;9.40;;;2.70;;
80823;SDS011;70538;59.122;37.876;2023-07-30T02:44:59;12.18;;;3.10;;
80823;SDS011;70538;59.122;37.876;2023-07-30T02:47:27;8.48;;;2.40;;
80823;SDS011;70538;59.122;37.876;2023-07-30T02:49:55;9.32;;;2.55;;
80823;SDS011;70538;59.122;37.876;2023-07-30T02:52:22;10.30;;;2.80;;
80823;SDS011;70538;59.122;37.876;2023-07-30T02:54:50;12.80;;;3.53;;
80823;SDS011;70538;59.122;37.876;2023-07-30T02:57:20;14.57;;;3.35;;
80823;SDS011;70538;59.122;37.876;2023-07-30T02:59:48;11.95;;;3.20;;
80823;SDS011;70538;59.122;37.876;2023-07-30T03:02:16;16.33;;;4.28;;
80823;SDS011;70538;59.122;37.876;2023-07-30T03:04:43;17.15;;;3.88;;
80823;SDS011;70538;59.122;37.876;2023-07-30T03:07:12;16.97;;;3.93;;
80823;SDS011;70538;59.122;37.876;2023-07-30T03:09:39;21.15;;;3.70;;
80823;SDS011;70538;59.122;37.876;2023-07-30T03:12:07;15.57;;;4.10;;
80823;SDS011;70538;59.122;37.876;2023-07-30T03:14:35;25.63;;;4.68;;
80823;SDS011;70538;59.122;37.876;2023-07-30T03:17:03;21.25;;;4.57;;
80823;SDS011;70538;59.122;37.876;2023-07-30T03:19:32;22.90;;;4.33;;
80823;SDS011;70538;59.122;37.876;2023-07-30T03:22:00;24.15;;;5.05;;
80823;SDS011;70538;59.122;37.876;2023-07-30T03:24:27;24.85;;;5.00;;
80823;SDS011;70538;59.122;37.876;2023-07-30T03:26:55;25.65;;;5.38;;
80823;SDS011;70538;59.122;37.876;2023-07-30T03:29:23;29.17;;;6.45;;
80823;SDS011;70538;59.122;37.876;2023-07-30T03:31:51;26.33;;;6.10;;
80823;SDS011;70538;59.122;37.876;2023-07-30T03:34:18;31.50;;;6.40;;
80823;SDS011;70538;59.122;37.876;2023-07-30T03:36:46;19.95;;;5.90;;
80823;SDS011;70538;59.122;37.876;2023-07-30T03:39:14;21.92;;;6.32;;
80823;SDS011;70538;59.122;37.876;2023-07-30T03:41:41;19.92;;;5.35;;
80823;SDS011;70538;59.122;37.876;2023-07-30T03:44:10;24.13;;;6.20;;
80823;SDS011;70538;59.122;37.876;2023-07-30T03:46:37;20.55;;;6.00;;
80823;SDS011;70538;59.122;37.876;2023-07-30T03:49:05;28.25;;;8.50;;
80823;SDS011;70538;59.122;37.876;2023-07-30T03:51:33;27.35;;;8.05;;
80823;SDS011;70538;59.122;37.876;2023-07-30T03:54:01;20.60;;;7.78;;
80823;SDS011;70538;59.122;37.876;2023-07-30T03:56:29;22.50;;;7.23;;
80823;SDS011;70538;59.122;37.876;2023-07-30T03:58:56;26.17;;;7.50;;
80823;SDS011;70538;59.122;37.876;2023-07-30T04:01:24;24.83;;;7.80;;
80823;SDS011;70538;59.122;37.876;2023-07-30T04:03:51;25.70;;;7.85;;
80823;SDS011;70538;59.122;37.876;2023-07-30T04:06:19;22.80;;;8.13;;
80823;SDS011;70538;59.122;37.876;2023-07-30T04:08:47;30.43;;;10.90;;
80823;SDS011;70538;59.122;37.876;2023-07-30T04:11:15;28.50;;;8.73;;
80823;SDS011;70538;59.122;37.876;2023-07-30T04:13:42;25.00;;;7.53;;
80823;SDS011;70538;59.122;37.876;2023-07-30T04:16:10;26.13;;;7.00;;
80823;SDS011;70538;59.122;37.876;2023-07-30T04:18:38;18.63;;;5.60;;
80823;SDS011;70538;59.122;37.876;2023-07-30T04:21:05;20.20;;;5.80;;
80823;SDS011;70538;59.122;37.876;2023-07-30T04:23:33;25.50;;;6.28;;
80823;SDS011;70538;59.122;37.876;2023-07-30T04:26:00;31.33;;;8.57;;
80823;SDS011;70538;59.122;37.876;2023-07-30T04:28:29;29.20;;;9.43;;
80823;SDS011;70538;59.122;37.876;2023-07-30T04:31:01;48.00;;;14.45;;
80823;SDS011;70538;59.122;37.876;2023-07-30T04:33:28;39.63;;;13.07;;
80823;SDS011;70538;59.122;37.876;2023-07-30T04:35:56;32.03;;;11.45;;
80823;SDS011;70538;59.122;37.876;2023-07-30T04:38:24;35.40;;;10.85;;
80823;SDS011;70538;59.122;37.876;2023-07-30T04:40:52;23.48;;;8.18;;
80823;SDS011;70538;59.122;37.876;2023-07-30T04:43:19;22.92;;;7.57;;
80823;SDS011;70538;59.122;37.876;2023-07-30T04:45:47;24.23;;;6.77;;
80823;SDS011;70538;59.122;37.876;2023-07-30T04:48:15;25.33;;;7.13;;
80823;SDS011;70538;59.122;37.876;2023-07-30T04:50:42;21.20;;;6.07;;
80823;SDS011;70538;59.122;37.876;2023-07-30T04:53:10;19.90;;;6.30;;
80823;SDS011;70538;59.122;37.876;2023-07-30T04:55:38;19.02;;;6.43;;
80823;SDS011;70538;59.122;37.876;2023-07-30T04:58:05;19.73;;;6.90;;
80823;SDS011;70538;59.122;37.876;2023-07-30T05:00:33;17.92;;;6.10;;
80823;SDS011;70538;59.122;37.876;2023-07-30T05:03:00;18.13;;;6.10;;
80823;SDS011;70538;59.122;37.876;2023-07-30T05:05:28;15.05;;;6.07;;
80823;SDS011;70538;59.122;37.876;2023-07-30T05:07:56;17.17;;;5.97;;
80823;SDS011;70538;59.122;37.876;2023-07-30T05:10:24;18.77;;;6.60;;
80823;SDS011;70538;59.122;37.876;2023-07-30T05:12:52;20.25;;;7.03;;
80823;SDS011;70538;59.122;37.876;2023-07-30T05:15:19;24.35;;;8.32;;
80823;SDS011;70538;59.122;37.876;2023-07-30T05:17:47;25.05;;;8.70;;
80823;SDS011;70538;59.122;37.876;2023-07-30T05:20:15;59.00;;;19.25;;
80823;SDS011;70538;59.122;37.876;2023-07-30T05:22:43;40.83;;;14.57;;
80823;SDS011;70538;59.122;37.876;2023-07-30T05:25:11;36.63;;;12.95;;
80823;SDS011;70538;59.122;37.876;2023-07-30T05:27:38;45.88;;;16.92;;
80823;SDS011;70538;59.122;37.876;2023-07-30T05:30:06;39.42;;;14.63;;
80823;SDS011;70538;59.122;37.876;2023-07-30T05:32:34;31.83;;;11.75;;
80823;SDS011;70538;59.122;37.876;2023-07-30T05:35:02;30.83;;;9.57;;
80823;SDS011;70538;59.122;37.876;2023-07-30T05:37:30;23.10;;;7.53;;
80823;SDS011;70538;59.122;37.876;2023-07-30T05:39:58;25.05;;;7.93;;
80823;SDS011;70538;59.122;37.876;2023-07-30T05:42:26;22.33;;;8.48;;
80823;SDS011;70538;59.122;37.876;2023-07-30T05:44:54;35.85;;;13.48;;
80823;SDS011;70538;59.122;37.876;2023-07-30T05:47:22;39.63;;;15.47;;
80823;SDS011;70538;59.122;37.876;2023-07-30T05:49:49;41.22;;;14.27;;
80823;SDS011;70538;59.122;37.876;2023-07-30T05:52:17;25.05;;;9.02;;
80823;SDS011;70538;59.122;37.876;2023-07-30T05:54:45;15.15;;;6.03;;
80823;SDS011;70538;59.122;37.876;2023-07-30T05:57:13;12.73;;;4.28;;
80823;SDS011;70538;59.122;37.876;2023-07-30T05:59:41;13.37;;;4.17;;
80823;SDS011;70538;59.122;37.876;2023-07-30T06:02:09;11.88;;;4.05;;
80823;SDS011;70538;59.122;37.876;2023-07-30T06:04:37;10.52;;;3.97;;
80823;SDS011;70538;59.122;37.876;2023-07-30T06:07:04;10.32;;;3.70;;
80823;SDS011;70538;59.122;37.876;2023-07-30T06:09:32;9.80;;;3.60;;
80823;SDS011;70538;59.122;37.876;2023-07-30T06:12:00;11.30;;;3.97;;
80823;SDS011;70538;59.122;37.876;2023-07-30T06:14:28;9.88;;;3.50;;
80823;SDS011;70538;59.122;37.876;2023-07-30T06:16:55;8.98;;;3.08;;
80823;SDS011;70538;59.122;37.876;2023-07-30T06:19:23;9.73;;;3.10;;
80823;SDS011;70538;59.122;37.876;2023-07-30T06:21:51;10.63;;;3.83;;
80823;SDS011;70538;59.122;37.876;2023-07-30T06:24:19;9.73;;;4.10;;
80823;SDS011;70538;59.122;37.876;2023-07-30T06:26:46;11.45;;;4.28;;
80823;SDS011;70538;59.122;37.876;2023-07-30T06:29:14;11.30;;;4.00;;
80823;SDS011;70538;59.122;37.876;2023-07-30T06:31:42;12.88;;;4.65;;
80823;SDS011;70538;59.122;37.876;2023-07-30T06:34:10;12.48;;;4.72;;
80823;SDS011;70538;59.122;37.876;2023-07-30T06:36:38;13.03;;;4.80;;
80823;SDS011;70538;59.122;37.876;2023-07-30T06:39:06;18.35;;;5.20;;
80823;SDS011;70538;59.122;37.876;2023-07-30T06:41:34;14.00;;;5.45;;
80823;SDS011;70538;59.122;37.876;2023-07-30T06:44:04;14.45;;;5.55;;
80823;SDS011;70538;59.122;37.876;2023-07-30T06:46:31;16.25;;;5.78;;
80823;SDS011;70538;59.122;37.876;2023-07-30T06:48:59;21.70;;;6.03;;
80823;SDS011;70538;59.122;37.876;2023-07-30T06:51:27;19.40;;;6.20;;
80823;SDS011;70538;59.122;37.876;2023-07-30T06:53:55;12.75;;;3.67;;
80823;SDS011;70538;59.122;37.876;2023-07-30T06:56:24;10.93;;;3.58;;
80823;SDS011;70538;59.122;37.876;2023-07-30T06:58:51;14.10;;;5.25;;
80823;SDS011;70538;59.122;37.876;2023-07-30T07:01:19;14.83;;;4.10;;
80823;SDS011;70538;59.122;37.876;2023-07-30T07:03:47;15.88;;;4.10;;
80823;SDS011;70538;59.122;37.876;2023-07-30T07:06:14;13.40;;;4.20;;
80823;SDS011;70538;59.122;37.876;2023-07-30T07:08:42;13.95;;;3.67;;
80823;SDS011;70538;59.122;37.876;2023-07-30T07:11:10;9.15;;;3.10;;
80823;SDS011;70538;59.122;37.876;2023-07-30T07:13:38;8.80;;;3.10;;
80823;SDS011;70538;59.122;37.876;2023-07-30T07:16:07;8.68;;;3.20;;
80823;SDS011;70538;59.122;37.876;2023-07-30T07:18:35;8.20;;;3.03;;
80823;SDS011;70538;59.122;37.876;2023-07-30T07:21:02;10.65;;;3.42;;
80823;SDS011;70538;59.122;37.876;2023-07-30T07:23:30;10.10;;;3.40;;
80823;SDS011;70538;59.122;37.876;2023-07-30T07:25:58;11.53;;;3.47;;
80823;SDS011;70538;59.122;37.876;2023-07-30T07:28:25;10.48;;;3.53;;
80823;SDS011;70538;59.122;37.876;2023-07-30T07:30:54;10.30;;;3.35;;
80823;SDS011;70538;59.122;37.876;2023-07-30T07:33:22;8.95;;;3.20;;
80823;SDS011;70538;59.122;37.876;2023-07-30T07:35:51;7.28;;;3.08;;
80823;SDS011;70538;59.122;37.876;2023-07-30T07:38:18;10.93;;;3.33;;
80823;SDS011;70538;59.122;37.876;2023-07-30T07:40:46;7.97;;;3.03;;
80823;SDS011;70538;59.122;37.876;2023-07-30T07:43:14;9.13;;;3.53;;
80823;SDS011;70538;59.122;37.876;2023-07-30T07:45:41;10.18;;;3.70;;
80823;SDS011;70538;59.122;37.876;2023-07-30T07:48:09;8.55;;;3.10;;
80823;SDS011;70538;59.122;37.876;2023-07-30T07:50:37;10.53;;;3.17;;
80823;SDS011;70538;59.122;37.876;2023-07-30T07:53:04;9.35;;;2.97;;
80823;SDS011;70538;59.122;37.876;2023-07-30T07:55:32;9.73;;;3.92;;
80823;SDS011;70538;59.122;37.876;2023-07-30T07:58:00;11.45;;;3.45;;
80823;SDS011;70538;59.122;37.876;2023-07-30T08:00:28;8.18;;;2.70;;
80823;SDS011;70538;59.122;37.876;2023-07-30T08:02:55;9.83;;;3.00;;
80823;SDS011;70538;59.122;37.876;2023-07-30T08:05:23;8.98;;;3.38;;
80823;SDS011;70538;59.122;37.876;2023-07-30T08:07:51;7.43;;;2.80;;
80823;SDS011;70538;59.122;37.876;2023-07-30T08:10:19;8.05;;;2.42;;
80823;SDS011;70538;59.122;37.876;2023-07-30T08:12:47;8.07;;;3.17;;
80823;SDS011;70538;59.122;37.876;2023-07-30T08:15:16;11.97;;;5.57;;
80823;SDS011;70538;59.122;37.876;2023-07-30T08:17:44;38.95;;;17.77;;
80823;SDS011;70538;59.122;37.876;2023-07-30T08:20:12;31.85;;;15.30;;
80823;SDS011;70538;59.122;37.876;2023-07-30T08:22:39;55.78;;;25.77;;
80823;SDS011;70538;59.122;37.876;2023-07-30T08:25:07;38.65;;;18.30;;
80823;SDS011;70538;59.122;37.876;2023-07-30T08:27:35;28.53;;;11.63;;
80823;SDS011;70538;59.122;37.876;2023-07-30T08:30:03;31.02;;;11.85;;
80823;SDS011;70538;59.122;37.876;2023-07-30T08:32:32;44.60;;;16.58;;
80823;SDS011;70538;59.122;37.876;2023-07-30T08:35:01;35.42;;;11.77;;
80823;SDS011;70538;59.122;37.876;2023-07-30T08:37:30;26.02;;;9.52;;
80823;SDS011;70538;59.122;37.876;2023-07-30T08:39:58;23.73;;;7.20;;
80823;SDS011;70538;59.122;37.876;2023-07-30T08:42:25;34.85;;;7.38;;
80823;SDS011;70538;59.122;37.876;2023-07-30T08:44:53;31.70;;;8.27;;
80823;SDS011;70538;59.122;37.876;2023-07-30T08:47:21;27.95;;;8.30;;
80823;SDS011;70538;59.122;37.876;2023-07-30T08:49:51;27.50;;;7.72;;
80823;SDS011;70538;59.122;37.876;2023-07-30T08:52:19;23.40;;;7.13;;
80823;SDS011;70538;59.122;37.876;2023-07-30T08:54:49;17.00;;;5.80;;
80823;SDS011;70538;59.122;37.876;2023-07-30T08:57:19;26.05;;;9.02;;
80823;SDS011;70538;59.122;37.876;2023-07-30T08:59:54;36.53;;;14.80;;
80823;SDS011;70538;59.122;37.876;2023-07-30T09:05:02;35.43;;;13.17;;
80823;SDS011;70538;59.122;37.876;2023-07-30T09:07:32;32.67;;;11.60;;
80823;SDS011;70538;59.122;37.876;2023-07-30T09:09:59;34.60;;;14.55;;
80823;SDS011;70538;59.122;37.876;2023-07-30T09:12:30;31.75;;;11.80;;
80823;SDS011;70538;59.122;37.876;2023-07-30T09:15:02;29.90;;;10.95;;
80823;SDS011;70538;59.122;37.876;2023-07-30T09:17:34;28.30;;;12.17;;
80823;SDS011;70538;59.122;37.876;2023-07-30T09:20:05;24.20;;;10.10;;
80823;SDS011;70538;59.122;37.876;2023-07-30T09:22:33;17.75;;;6.38;;
80823;SDS011;70538;59.122;37.876;2023-07-30T09:25:09;17.00;;;5.68;;
80823;SDS011;70538;59.122;37.876;2023-07-30T09:27:38;13.77;;;4.38;;
80823;SDS011;70538;59.122;37.876;2023-07-30T09:30:07;24.20;;;7.93;;
80823;SDS011;70538;59.122;37.876;2023-07-30T09:32:35;17.80;;;6.55;;
80823;SDS011;70538;59.122;37.876;2023-07-30T09:35:09;17.63;;;6.03;;
80823;SDS011;70538;59.122;37.876;2023-07-30T09:37:39;18.77;;;7.03;;
80823;SDS011;70538;59.122;37.876;2023-07-30T09:40:09;13.00;;;4.93;;
80823;SDS011;70538;59.122;37.876;2023-07-30T09:42:43;12.80;;;5.57;;
80823;SDS011;70538;59.122;37.876;2023-07-30T09:45:22;13.20;;;4.45;;
80823;SDS011;70538;59.122;37.876;2023-07-30T09:47:53;22.27;;;6.30;;
80823;SDS011;70538;59.122;37.876;2023-07-30T09:50:22;17.83;;;6.03;;
80823;SDS011;70538;59.122;37.876;2023-07-30T09:52:49;17.55;;;6.40;;
80823;SDS011;70538;59.122;37.876;2023-07-30T09:55:17;17.43;;;6.87;;
80823;SDS011;70538;59.122;37.876;2023-07-30T09:57:48;21.20;;;6.35;;
80823;SDS011;70538;59.122;37.876;2023-07-30T10:00:16;15.13;;;6.15;;
80823;SDS011;70538;59.122;37.876;2023-07-30T10:02:47;10.95;;;4.30;;
80823;SDS011;70538;59.122;37.876;2023-07-30T10:05:20;12.30;;;3.72;;
80823;SDS011;70538;59.122;37.876;2023-07-30T10:10:50;14.35;;;6.25;;
80823;SDS011;70538;59.122;37.876;2023-07-30T10:13:20;16.20;;;5.65;;
80823;SDS011;70538;59.122;37.876;2023-07-30T10:15:49;11.88;;;3.60;;
80823;SDS011;70538;59.122;37.876;2023-07-30T10:18:18;11.38;;;3.80;;
80823;SDS011;70538;59.122;37.876;2023-07-30T10:20:52;10.30;;;4.40;;
80823;SDS011;70538;59.122;37.876;2023-07-30T10:23:22;27.60;;;9.40;;
80823;SDS011;70538;59.122;37.876;2023-07-30T10:25:55;24.20;;;8.55;;
80823;SDS011;70538;59.122;37.876;2023-07-30T10:28:27;22.67;;;7.90;;
80823;SDS011;70538;59.122;37.876;2023-07-30T10:31:04;21.00;;;10.95;;
80823;SDS011;70538;59.122;37.876;2023-07-30T10:33:47;17.63;;;9.63;;
80823;SDS011;70538;59.122;37.876;2023-07-30T10:36:18;10.02;;;5.03;;
80823;SDS011;70538;59.122;37.876;2023-07-30T10:41:57;10.10;;;3.20;;
80823;SDS011;70538;59.122;37.876;2023-07-30T10:44:33;9.98;;;3.80;;
80823;SDS011;70538;59.122;37.876;2023-07-30T10:47:02;19.97;;;9.23;;
80823;SDS011;70538;59.122;37.876;2023-07-30T10:49:38;18.27;;;9.07;;
80823;SDS011;70538;59.122;37.876;2023-07-30T10:52:07;18.48;;;9.13;;
80823;SDS011;70538;59.122;37.876;2023-07-30T10:54:35;21.92;;;8.43;;
80823;SDS011;70538;59.122;37.876;2023-07-30T10:57:04;20.63;;;6.80;;
80823;SDS011;70538;59.122;37.876;2023-07-30T10:59:38;11.90;;;3.60;;
80823;SDS011;70538;59.122;37.876;2023-07-30T11:02:09;10.57;;;3.40;;
80823;SDS011;70538;59.122;37.876;2023-07-30T11:05:13;7.93;;;3.08;;
80823;SDS011;70538;59.122;37.876;2023-07-30T11:07:48;10.25;;;3.28;;
80823;SDS011;70538;59.122;37.876;2023-07-30T11:10:17;8.60;;;3.00;;
80823;SDS011;70538;59.122;37.876;2023-07-30T11:12:47;9.00;;;2.50;;
80823;SDS011;70538;59.122;37.876;2023-07-30T11:15:17;6.90;;;2.30;;
80823;SDS011;70538;59.122;37.876;2023-07-30T11:17:45;11.55;;;2.63;;
80823;SDS011;70538;59.122;37.876;2023-07-30T11:20:23;6.03;;;2.20;;
80823;SDS011;70538;59.122;37.876;2023-07-30T11:22:53;9.30;;;3.03;;
80823;SDS011;70538;59.122;37.876;2023-07-30T11:25:21;14.40;;;4.70;;
80823;SDS011;70538;59.122;37.876;2023-07-30T11:27:49;12.32;;;4.40;;
80823;SDS011;70538;59.122;37.876;2023-07-30T11:30:18;16.98;;;5.80;;
80823;SDS011;70538;59.122;37.876;2023-07-30T11:32:46;12.55;;;5.22;;
80823;SDS011;70538;59.122;37.876;2023-07-30T11:35:14;13.77;;;5.97;;
80823;SDS011;70538;59.122;37.876;2023-07-30T11:37:45;15.63;;;7.30;;
80823;SDS011;70538;59.122;37.876;2023-07-30T11:40:16;16.05;;;6.63;;
80823;SDS011;70538;59.122;37.876;2023-07-30T11:42:43;18.42;;;5.38;;
80823;SDS011;70538;59.122;37.876;2023-07-30T11:45:21;12.30;;;5.07;;
80823;SDS011;70538;59.122;37.876;2023-07-30T11:47:50;16.77;;;4.57;;
80823;SDS011;70538;59.122;37.876;2023-07-30T11:50:19;15.77;;;3.80;;
80823;SDS011;70538;59.122;37.876;2023-07-30T11:52:53;12.98;;;3.20;;
80823;SDS011;70538;59.122;37.876;2023-07-30T11:55:22;11.20;;;3.17;;
80823;SDS011;70538;59.122;37.876;2023-07-30T11:57:51;16.85;;;4.80;;
80823;SDS011;70538;59.122;37.876;2023-07-30T12:00:22;16.08;;;6.95;;
80823;SDS011;70538;59.122;37.876;2023-07-30T12:02:50;18.97;;;8.83;;
80823;SDS011;70538;59.122;37.876;2023-07-30T12:05:18;22.00;;;10.77;;
80823;SDS011;70538;59.122;37.876;2023-07-30T12:07:47;16.35;;;7.20;;
80823;SDS011;70538;59.122;37.876;2023-07-30T12:10:15;14.52;;;5.55;;
80823;SDS011;70538;59.122;37.876;2023-07-30T12:12:46;12.55;;;4.97;;
80823;SDS011;70538;59.122;37.876;2023-07-30T12:15:20;14.17;;;5.17;;
80823;SDS011;70538;59.122;37.876;2023-07-30T12:17:49;17.27;;;6.55;;
80823;SDS011;70538;59.122;37.876;2023-07-30T12:20:18;21.90;;;11.98;;
80823;SDS011;70538;59.122;37.876;2023-07-30T12:22:45;18.23;;;8.52;;
80823;SDS011;70538;59.122;37.876;2023-07-30T12:25:13;13.85;;;6.43;;
80823;SDS011;70538;59.122;37.876;2023-07-30T12:27:43;42.90;;;14.80;;
80823;SDS011;70538;59.122;37.876;2023-07-30T12:30:15;34.90;;;11.57;;
80823;SDS011;70538;59.122;37.876;2023-07-30T12:32:43;38.15;;;13.90;;
80823;SDS011;70538;59.122;37.876;2023-07-30T12:35:11;22.17;;;7.82;;
80823;SDS011;70538;59.122;37.876;2023-07-30T12:37:38;12.90;;;4.88;;
80823;SDS011;70538;59.122;37.876;2023-07-30T12:40:06;12.37;;;4.23;;
80823;SDS011;70538;59.122;37.876;2023-07-30T12:42:35;9.50;;;3.60;;
80823;SDS011;70538;59.122;37.876;2023-07-30T12:45:03;9.50;;;3.00;;
80823;SDS011;70538;59.122;37.876;2023-07-30T12:47:31;7.65;;;2.72;;
80823;SDS011;70538;59.122;37.876;2023-07-30T12:49:59;10.68;;;3.63;;
80823;SDS011;70538;59.122;37.876;2023-07-30T12:52:28;13.90;;;6.10;;
80823;SDS011;70538;59.122;37.876;2023-07-30T12:54:55;11.40;;;5.45;;
80823;SDS011;70538;59.122;37.876;2023-07-30T12:57:23;8.02;;;3.60;;
80823;SDS011;70538;59.122;37.876;2023-07-30T12:59:51;13.77;;;6.07;;
80823;SDS011;70538;59.122;37.876;2023-07-30T13:02:18;10.38;;;4.25;;
80823;SDS011;70538;59.122;37.876;2023-07-30T13:04:47;11.03;;;3.63;;
80823;SDS011;70538;59.122;37.876;2023-07-30T13:07:14;10.63;;;4.20;;
80823;SDS011;70538;59.122;37.876;2023-07-30T13:09:42;9.32;;;3.72;;
80823;SDS011;70538;59.122;37.876;2023-07-30T13:12:10;10.25;;;3.42;;
80823;SDS011;70538;59.122;37.876;2023-07-30T13:14:37;8.70;;;2.92;;
80823;SDS011;70538;59.122;37.876;2023-07-30T13:17:05;6.77;;;2.40;;
80823;SDS011;70538;59.122;37.876;2023-07-30T13:19:33;7.15;;;2.40;;
80823;SDS011;70538;59.122;37.876;2023-07-30T13:22:02;6.72;;;2.80;;
80823;SDS011;70538;59.122;37.876;2023-07-30T13:24:29;9.98;;;2.20;;
80823;SDS011;70538;59.122;37.876;2023-07-30T13:26:58;7.45;;;2.20;;
80823;SDS011;70538;59.122;37.876;2023-07-30T13:29:26;8.13;;;2.43;;
80823;SDS011;70538;59.122;37.876;2023-07-30T13:31:54;8.68;;;2.30;;
80823;SDS011;70538;59.122;37.876;2023-07-30T13:34:21;6.40;;;2.20;;
80823;SDS011;70538;59.122;37.876;2023-07-30T13:36:49;6.57;;;1.88;;
80823;SDS011;70538;59.122;37.876;2023-07-30T13:39:17;6.40;;;2.30;;
80823;SDS011;70538;59.122;37.876;2023-07-30T13:41:45;9.73;;;2.57;;
80823;SDS011;70538;59.122;37.876;2023-07-30T13:44:13;7.15;;;2.33;;
80823;SDS011;70538;59.122;37.876;2023-07-30T13:46:41;5.53;;;2.22;;
80823;SDS011;70538;59.122;37.876;2023-07-30T13:49:09;6.78;;;2.30;;
80823;SDS011;70538;59.122;37.876;2023-07-30T13:51:36;6.47;;;2.65;;
80823;SDS011;70538;59.122;37.876;2023-07-30T13:54:05;7.10;;;2.33;;
80823;SDS011;70538;59.122;37.876;2023-07-30T13:56:35;7.93;;;2.60;;
80823;SDS011;70538;59.122;37.876;2023-07-30T13:59:02;6.68;;;2.50;;
80823;SDS011;70538;59.122;37.876;2023-07-30T14:01:30;7.82;;;2.63;;
80823;SDS011;70538;59.122;37.876;2023-07-30T14:03:58;7.57;;;2.58;;
80823;SDS011;70538;59.122;37.876;2023-07-30T14:06:26;8.40;;;2.17;;
80823;SDS011;70538;59.122;37.876;2023-07-30T14:08:53;8.82;;;2.28;;
80823;SDS011;70538;59.122;37.876;2023-07-30T14:11:21;8.15;;;2.50;;
80823;SDS011;70538;59.122;37.876;2023-07-30T14:13:49;6.45;;;2.47;;
80823;SDS011;70538;59.122;37.876;2023-07-30T14:16:17;7.32;;;2.38;;
80823;SDS011;70538;59.122;37.876;2023-07-30T14:18:45;7.93;;;2.60;;
80823;SDS011;70538;59.122;37.876;2023-07-30T14:21:12;7.03;;;2.40;;
80823;SDS011;70538;59.122;37.876;2023-07-30T14:23:40;8.50;;;2.40;;
80823;SDS011;70538;59.122;37.876;2023-07-30T14:26:08;8.25;;;2.03;;
80823;SDS011;70538;59.122;37.876;2023-07-30T14:28:36;7.75;;;2.40;;
80823;SDS011;70538;59.122;37.876;2023-07-30T14:31:04;6.57;;;2.00;;
80823;SDS011;70538;59.122;37.876;2023-07-30T14:33:32;7.18;;;2.45;;
80823;SDS011;70538;59.122;37.876;2023-07-30T14:35:59;9.10;;;2.42;;
80823;SDS011;70538;59.122;37.876;2023-07-30T14:38:27;7.35;;;2.60;;
80823;SDS011;70538;59.122;37.876;2023-07-30T14:40:55;6.90;;;2.58;;
80823;SDS011;70538;59.122;37.876;2023-07-30T14:43:23;6.70;;;2.60;;